createdAt,value
2019-03-21T00:00:11.192Z,0.00
2019-03-21T00:01:11.176Z,0.00
2019-03-21T00:02:11.191Z,0.00
2019-03-21T00:03:11.200Z,0.00
2019-03-21T00:04:11.144Z,0.00
2019-03-21T00:05:11.152Z,0.00
2019-03-21T00:06:11.139Z,0.00
2019-03-21T00:07:11.126Z,0.00
2019-03-21T00:08:11.119Z,0.00
2019-03-21T00:09:11.112Z,0.00
2019-03-21T00:10:11.083Z,0.00
2019-03-21T00:11:11.079Z,0.00
2019-03-21T00:12:11.084Z,0.00
2019-03-21T00:13:11.062Z,0.00
2019-03-21T00:14:11.070Z,0.00
2019-03-21T00:15:11.054Z,0.00
2019-03-21T00:16:13.462Z,0.00
2019-03-21T00:17:11.027Z,0.00
2019-03-21T00:18:11.023Z,0.00
2019-03-21T00:19:11.060Z,0.00
2019-03-21T00:20:10.982Z,0.00
2019-03-21T00:21:11.031Z,0.00
2019-03-21T00:22:10.987Z,0.00
2019-03-21T00:23:10.954Z,0.00
2019-03-21T00:24:10.958Z,0.00
2019-03-21T00:25:10.934Z,0.00
2019-03-21T00:26:10.931Z,0.00
2019-03-21T00:27:10.906Z,0.00
2019-03-21T00:28:10.897Z,0.00
2019-03-21T00:29:10.901Z,0.00
2019-03-21T00:30:10.880Z,0.00
2019-03-21T00:31:10.868Z,0.00
2019-03-21T00:32:10.860Z,0.00
2019-03-21T00:33:10.845Z,0.00
2019-03-21T00:34:10.846Z,0.00
2019-03-21T00:35:10.829Z,0.00
2019-03-21T00:36:10.815Z,0.00
2019-03-21T00:37:10.802Z,0.00
2019-03-21T00:38:10.793Z,0.00
2019-03-21T00:39:10.802Z,0.00
2019-03-21T00:40:10.781Z,0.00
2019-03-21T00:41:10.764Z,0.00
2019-03-21T00:42:10.764Z,0.00
2019-03-21T00:43:10.739Z,0.00
2019-03-21T00:44:18.234Z,0.00
2019-03-21T00:45:11.727Z,0.00
2019-03-21T00:46:10.727Z,0.00
2019-03-21T00:47:10.706Z,0.00
2019-03-21T00:48:10.692Z,0.00
2019-03-21T00:49:10.680Z,0.00
2019-03-21T00:50:10.693Z,0.00
2019-03-21T00:51:10.658Z,0.00
2019-03-21T00:52:10.647Z,0.00
2019-03-21T00:53:10.668Z,0.00
2019-03-21T00:54:10.634Z,0.00
2019-03-21T00:55:10.635Z,0.00
2019-03-21T00:56:10.608Z,0.00
2019-03-21T00:57:10.610Z,0.00
2019-03-21T00:58:10.618Z,0.00
2019-03-21T00:59:10.609Z,0.00
2019-03-21T01:00:10.608Z,0.00
2019-03-21T01:01:10.558Z,0.00
2019-03-21T01:02:10.569Z,0.00
2019-03-21T01:03:10.545Z,0.00
2019-03-21T01:04:10.551Z,0.00
2019-03-21T01:05:10.530Z,0.00
2019-03-21T01:06:10.516Z,0.00
2019-03-21T01:07:10.498Z,0.00
2019-03-21T01:08:10.490Z,0.00
2019-03-21T01:09:10.472Z,0.00
2019-03-21T01:10:10.479Z,0.00
2019-03-21T01:11:10.470Z,0.00
2019-03-21T01:12:10.447Z,0.00
2019-03-21T01:13:10.448Z,0.00
2019-03-21T01:14:10.428Z,0.00
2019-03-21T01:15:10.472Z,0.00
2019-03-21T01:16:10.420Z,0.00
2019-03-21T01:17:10.390Z,0.00
2019-03-21T01:18:10.403Z,0.00
2019-03-21T01:19:10.380Z,0.00
2019-03-21T01:20:10.356Z,0.00
2019-03-21T01:21:10.365Z,0.00
2019-03-21T01:22:10.343Z,0.00
2019-03-21T01:23:10.339Z,0.00
2019-03-21T01:24:10.315Z,0.00
2019-03-21T01:25:10.310Z,0.00
2019-03-21T01:26:10.328Z,0.00
2019-03-21T01:27:10.291Z,0.00
2019-03-21T01:28:10.273Z,0.00
2019-03-21T01:29:10.278Z,0.00
2019-03-21T01:30:10.256Z,0.00
2019-03-21T01:31:10.259Z,0.00
2019-03-21T01:32:10.267Z,0.00
2019-03-21T01:33:10.244Z,0.00
2019-03-21T01:34:10.281Z,0.00
2019-03-21T01:35:10.206Z,0.00
2019-03-21T01:36:10.204Z,0.00
2019-03-21T01:37:10.185Z,0.00
2019-03-21T01:38:10.169Z,0.00
2019-03-21T01:39:10.181Z,0.00
2019-03-21T01:40:10.165Z,0.00
2019-03-21T01:41:10.148Z,0.00
2019-03-21T01:42:10.151Z,0.00
2019-03-21T01:43:10.122Z,0.00
2019-03-21T01:44:10.133Z,0.00
2019-03-21T01:45:10.098Z,0.00
2019-03-21T01:46:10.122Z,0.00
2019-03-21T01:47:10.129Z,0.00
2019-03-21T01:48:10.073Z,0.00
2019-03-21T01:49:10.057Z,0.00
2019-03-21T01:50:10.059Z,0.00
2019-03-21T01:51:10.058Z,0.00
2019-03-21T01:52:10.051Z,0.00
2019-03-21T01:53:10.017Z,0.00
2019-03-21T01:54:10.004Z,0.00
2019-03-21T01:55:11.447Z,0.00
2019-03-21T01:56:09.997Z,0.00
2019-03-21T01:57:10.001Z,0.00
2019-03-21T01:58:10.001Z,0.00
2019-03-21T01:59:09.968Z,0.00
2019-03-21T02:00:09.960Z,0.00
2019-03-21T02:01:09.951Z,0.00
2019-03-21T02:02:09.950Z,0.00
2019-03-21T02:03:09.934Z,0.00
2019-03-21T02:04:09.899Z,0.00
2019-03-21T02:05:09.913Z,0.00
2019-03-21T02:06:09.906Z,0.00
2019-03-21T02:07:09.884Z,0.00
2019-03-21T02:08:09.891Z,0.00
2019-03-21T02:09:09.875Z,0.00
2019-03-21T02:10:09.848Z,0.00
2019-03-21T02:11:09.851Z,0.00
2019-03-21T02:12:09.849Z,0.00
2019-03-21T02:13:09.872Z,0.00
2019-03-21T02:14:09.816Z,0.00
2019-03-21T02:15:09.791Z,0.00
2019-03-21T02:16:09.822Z,0.00
2019-03-21T02:17:09.764Z,0.00
2019-03-21T02:18:09.776Z,0.00
2019-03-21T02:19:09.760Z,0.00
2019-03-21T02:20:09.757Z,0.00
2019-03-21T02:21:09.752Z,0.00
2019-03-21T02:22:09.728Z,0.00
2019-03-21T02:23:09.720Z,0.00
2019-03-21T02:24:09.713Z,0.00
2019-03-21T02:25:09.683Z,0.00
2019-03-21T02:26:09.723Z,0.00
2019-03-21T02:27:09.667Z,0.00
2019-03-21T02:28:09.664Z,0.00
2019-03-21T02:29:09.669Z,0.00
2019-03-21T02:30:09.648Z,0.00
2019-03-21T02:31:09.636Z,0.00
2019-03-21T02:32:09.619Z,0.00
2019-03-21T02:33:09.618Z,0.00
2019-03-21T02:34:09.590Z,0.00
2019-03-21T02:35:09.589Z,0.00
2019-03-21T02:36:09.609Z,0.00
2019-03-21T02:37:09.580Z,0.00
2019-03-21T02:38:09.582Z,0.00
2019-03-21T02:39:09.571Z,0.00
2019-03-21T02:40:09.533Z,0.00
2019-03-21T02:41:09.541Z,0.00
2019-03-21T02:42:09.541Z,0.00
2019-03-21T02:43:09.525Z,0.00
2019-03-21T02:44:09.499Z,0.00
2019-03-21T02:45:09.808Z,0.00
2019-03-21T02:46:09.478Z,0.00
2019-03-21T02:47:09.501Z,0.00
2019-03-21T02:48:09.453Z,0.00
2019-03-21T02:49:09.440Z,0.00
2019-03-21T02:50:09.435Z,0.00
2019-03-21T02:51:09.465Z,0.00
2019-03-21T02:52:09.447Z,0.00
2019-03-21T02:53:09.394Z,0.00
2019-03-21T02:54:09.403Z,0.00
2019-03-21T02:55:09.382Z,0.00
2019-03-21T02:56:09.381Z,0.00
2019-03-21T02:57:09.365Z,0.00
2019-03-21T02:58:09.348Z,0.00
2019-03-21T02:59:09.340Z,0.00
2019-03-21T03:00:09.339Z,0.00
2019-03-21T03:01:09.324Z,0.00
2019-03-21T03:02:09.313Z,0.00
2019-03-21T03:03:09.298Z,0.00
2019-03-21T03:04:09.283Z,0.00
2019-03-21T03:05:09.277Z,0.00
2019-03-21T03:06:09.269Z,0.00
2019-03-21T03:07:09.278Z,0.00
2019-03-21T03:08:09.241Z,0.00
2019-03-21T03:09:09.249Z,0.00
2019-03-21T03:10:09.249Z,0.00
2019-03-21T03:11:10.943Z,0.00
2019-03-21T03:12:09.255Z,0.00
2019-03-21T03:13:09.199Z,0.00
2019-03-21T03:14:09.187Z,0.00
2019-03-21T03:15:21.794Z,0.00
2019-03-21T03:16:10.159Z,0.00
2019-03-21T03:17:09.185Z,0.00
2019-03-21T03:18:09.176Z,0.00
2019-03-21T03:19:09.149Z,0.00
2019-03-21T03:20:09.131Z,0.00
2019-03-21T03:21:09.106Z,0.00
2019-03-21T03:22:09.151Z,0.00
2019-03-21T03:23:09.112Z,0.00
2019-03-21T03:24:09.099Z,0.00
2019-03-21T03:25:09.073Z,0.00
2019-03-21T03:26:09.065Z,0.00
2019-03-21T03:27:09.074Z,0.00
2019-03-21T03:28:09.040Z,0.00
2019-03-21T03:29:09.037Z,0.00
2019-03-21T03:30:09.017Z,0.00
2019-03-21T03:31:09.041Z,0.00
2019-03-21T03:32:09.028Z,0.00
2019-03-21T03:33:09.010Z,0.00
2019-03-21T03:34:09.069Z,0.00
2019-03-21T03:35:08.988Z,0.00
2019-03-21T03:36:08.991Z,0.00
2019-03-21T03:37:08.970Z,0.00
2019-03-21T03:38:08.931Z,0.00
2019-03-21T03:39:08.947Z,0.00
2019-03-21T03:40:08.925Z,0.00
2019-03-21T03:41:08.931Z,0.00
2019-03-21T03:42:08.903Z,0.00
2019-03-21T03:43:08.896Z,0.00
2019-03-21T03:44:08.873Z,0.00
2019-03-21T03:45:08.863Z,0.00
2019-03-21T03:46:08.860Z,0.00
2019-03-21T03:47:08.861Z,0.00
2019-03-21T03:48:08.855Z,0.00
2019-03-21T03:49:08.835Z,0.00
2019-03-21T03:50:08.813Z,0.00
2019-03-21T03:51:08.806Z,0.00
2019-03-21T03:52:08.824Z,0.00
2019-03-21T03:53:08.775Z,0.00
2019-03-21T03:54:08.795Z,0.00
2019-03-21T03:55:08.781Z,0.00
2019-03-21T03:56:08.748Z,0.00
2019-03-21T03:57:08.744Z,0.00
2019-03-21T03:58:08.756Z,0.00
2019-03-21T03:59:08.719Z,0.00
2019-03-21T04:00:08.728Z,0.00
2019-03-21T04:01:08.720Z,0.00
2019-03-21T04:02:08.744Z,0.00
2019-03-21T04:03:08.721Z,0.00
2019-03-21T04:04:08.669Z,0.00
2019-03-21T04:05:08.675Z,0.00
2019-03-21T04:06:08.666Z,0.00
2019-03-21T04:07:08.686Z,0.00
2019-03-21T04:08:08.669Z,0.00
2019-03-21T04:09:08.629Z,0.00
2019-03-21T04:10:08.621Z,0.00
2019-03-21T04:11:08.593Z,0.00
2019-03-21T04:12:08.618Z,0.00
2019-03-21T04:13:08.596Z,0.00
2019-03-21T04:14:08.566Z,0.00
2019-03-21T04:15:08.550Z,0.00
2019-03-21T04:16:08.548Z,0.00
2019-03-21T04:17:08.540Z,0.00
2019-03-21T04:18:08.558Z,0.00
2019-03-21T04:19:08.521Z,0.00
2019-03-21T04:20:08.510Z,0.00
2019-03-21T04:21:08.492Z,0.00
2019-03-21T04:22:08.486Z,0.00
2019-03-21T04:23:08.490Z,0.00
2019-03-21T04:24:08.462Z,0.00
2019-03-21T04:25:08.457Z,0.00
2019-03-21T04:26:08.447Z,0.00
2019-03-21T04:27:08.453Z,0.00
2019-03-21T04:28:08.429Z,0.00
2019-03-21T04:29:08.436Z,0.00
2019-03-21T04:30:08.415Z,0.00
2019-03-21T04:31:08.412Z,0.00
2019-03-21T04:32:08.391Z,0.00
2019-03-21T04:33:08.396Z,0.00
2019-03-21T04:34:08.355Z,0.00
2019-03-21T04:35:08.367Z,0.00
2019-03-21T04:36:08.357Z,0.00
2019-03-21T04:37:08.326Z,0.00
2019-03-21T04:38:08.359Z,0.00
2019-03-21T04:39:08.318Z,0.00
2019-03-21T04:40:08.331Z,0.00
2019-03-21T04:41:08.296Z,0.00
2019-03-21T04:42:08.278Z,0.00
2019-03-21T04:43:08.290Z,0.00
2019-03-21T04:44:08.252Z,0.00
2019-03-21T04:45:08.239Z,0.00
2019-03-21T04:46:08.242Z,0.00
2019-03-21T04:47:08.251Z,0.00
2019-03-21T04:48:08.245Z,0.00
2019-03-21T04:49:08.202Z,0.00
2019-03-21T04:50:08.238Z,0.00
2019-03-21T04:51:08.183Z,0.00
2019-03-21T04:52:08.183Z,0.00
2019-03-21T04:53:08.217Z,0.00
2019-03-21T04:54:08.147Z,0.00
2019-03-21T04:55:08.154Z,0.00
2019-03-21T04:56:08.126Z,0.00
2019-03-21T04:57:08.119Z,0.00
2019-03-21T04:58:08.131Z,0.00
2019-03-21T04:59:08.100Z,0.00
2019-03-21T05:00:08.133Z,0.00
2019-03-21T05:01:08.109Z,0.00
2019-03-21T05:02:08.082Z,0.00
2019-03-21T05:03:08.084Z,0.00
2019-03-21T05:04:08.050Z,0.00
2019-03-21T05:05:08.037Z,0.00
2019-03-21T05:06:08.063Z,0.00
2019-03-21T05:07:08.036Z,0.00
2019-03-21T05:08:08.015Z,0.00
2019-03-21T05:09:08.004Z,0.00
2019-03-21T05:10:07.989Z,0.00
2019-03-21T05:11:07.971Z,0.00
2019-03-21T05:12:07.965Z,0.00
2019-03-21T05:13:07.978Z,0.00
2019-03-21T05:14:07.952Z,0.00
2019-03-21T05:15:07.932Z,0.00
2019-03-21T05:16:14.619Z,0.00
2019-03-21T05:17:08.910Z,0.00
2019-03-21T05:18:07.924Z,0.00
2019-03-21T05:19:07.914Z,0.00
2019-03-21T05:20:07.885Z,0.00
2019-03-21T05:21:07.872Z,0.00
2019-03-21T05:22:07.858Z,5.62
2019-03-21T05:23:07.849Z,5.62
2019-03-21T05:24:07.843Z,5.62
2019-03-21T05:25:07.828Z,5.62
2019-03-21T05:26:07.820Z,5.62
2019-03-21T05:27:07.810Z,5.62
2019-03-21T05:28:07.803Z,5.62
2019-03-21T05:29:07.825Z,5.62
2019-03-21T05:30:07.794Z,11.25
2019-03-21T05:31:07.806Z,11.25
2019-03-21T05:32:07.774Z,11.25
2019-03-21T05:33:07.759Z,11.25
2019-03-21T05:34:07.759Z,11.25
2019-03-21T05:35:07.780Z,11.25
2019-03-21T05:36:07.734Z,16.88
2019-03-21T05:37:07.706Z,16.88
2019-03-21T05:38:07.707Z,16.88
2019-03-21T05:39:07.694Z,16.88
2019-03-21T05:40:07.697Z,16.88
2019-03-21T05:41:07.702Z,16.88
2019-03-21T05:42:07.670Z,22.50
2019-03-21T05:43:07.660Z,22.50
2019-03-21T05:44:07.653Z,22.50
2019-03-21T05:45:07.622Z,22.50
2019-03-21T05:46:07.627Z,22.50
2019-03-21T05:47:07.640Z,22.50
2019-03-21T05:48:07.604Z,28.12
2019-03-21T05:49:07.610Z,28.12
2019-03-21T05:50:07.571Z,28.12
2019-03-21T05:51:07.572Z,28.12
2019-03-21T05:52:07.571Z,28.12
2019-03-21T05:53:07.603Z,28.12
2019-03-21T05:54:07.553Z,33.75
2019-03-21T05:55:07.531Z,33.75
2019-03-21T05:56:07.515Z,33.75
2019-03-21T05:57:07.507Z,33.75
2019-03-21T05:58:07.513Z,33.75
2019-03-21T05:59:07.498Z,33.75
2019-03-21T06:00:07.509Z,39.38
2019-03-21T06:01:07.482Z,39.38
2019-03-21T06:02:07.492Z,39.38
2019-03-21T06:03:07.500Z,39.38
2019-03-21T06:04:07.450Z,39.38
2019-03-21T06:05:07.428Z,39.38
2019-03-21T06:06:07.408Z,39.38
2019-03-21T06:07:07.409Z,39.38
2019-03-21T06:08:07.387Z,45.00
2019-03-21T06:09:07.411Z,45.00
2019-03-21T06:10:07.377Z,45.00
2019-03-21T06:11:07.357Z,45.00
2019-03-21T06:12:07.345Z,45.00
2019-03-21T06:13:07.334Z,45.00
2019-03-21T06:14:07.335Z,45.00
2019-03-21T06:15:07.323Z,50.62
2019-03-21T06:16:07.312Z,50.62
2019-03-21T06:17:07.320Z,50.62
2019-03-21T06:18:07.291Z,50.62
2019-03-21T06:19:07.285Z,50.62
2019-03-21T06:20:07.264Z,50.62
2019-03-21T06:21:07.253Z,50.62
2019-03-21T06:22:07.243Z,50.62
2019-03-21T06:23:07.243Z,56.25
2019-03-21T06:24:07.284Z,56.25
2019-03-21T06:25:07.222Z,56.25
2019-03-21T06:26:07.208Z,56.25
2019-03-21T06:27:14.345Z,56.25
2019-03-21T06:28:08.193Z,56.25
2019-03-21T06:29:07.172Z,56.25
2019-03-21T06:30:07.174Z,56.25
2019-03-21T06:31:07.150Z,61.88
2019-03-21T06:32:07.149Z,61.88
2019-03-21T06:33:07.212Z,61.88
2019-03-21T06:34:07.141Z,61.88
2019-03-21T06:35:07.133Z,61.88
2019-03-21T06:36:07.105Z,61.88
2019-03-21T06:37:07.094Z,61.88
2019-03-21T06:38:07.079Z,61.88
2019-03-21T06:39:07.074Z,61.88
2019-03-21T06:40:07.314Z,67.50
2019-03-21T06:41:07.063Z,67.50
2019-03-21T06:42:07.042Z,67.50
2019-03-21T06:43:07.031Z,67.50
2019-03-21T06:44:07.021Z,67.50
2019-03-21T06:45:07.038Z,67.50
2019-03-21T06:46:07.027Z,67.50
2019-03-21T06:47:07.015Z,67.50
2019-03-21T06:48:06.990Z,67.50
2019-03-21T06:49:06.985Z,67.50
2019-03-21T06:50:06.986Z,67.50
2019-03-21T06:51:06.953Z,73.12
2019-03-21T06:52:06.946Z,73.12
2019-03-21T06:53:06.940Z,73.12
2019-03-21T06:54:06.950Z,73.12
2019-03-21T06:55:06.935Z,73.12
2019-03-21T06:56:06.914Z,73.12
2019-03-21T06:57:06.919Z,73.12
2019-03-21T06:58:06.881Z,73.12
2019-03-21T06:59:06.879Z,73.12
2019-03-21T07:00:06.887Z,73.12
2019-03-21T07:01:06.843Z,73.12
2019-03-21T07:02:06.840Z,73.12
2019-03-21T07:03:06.832Z,73.12
2019-03-21T07:04:07.635Z,73.12
2019-03-21T07:05:06.819Z,78.75
2019-03-21T07:06:07.766Z,78.75
2019-03-21T07:07:08.415Z,78.75
2019-03-21T07:08:06.771Z,78.75
2019-03-21T07:09:06.779Z,78.75
2019-03-21T07:10:06.776Z,78.75
2019-03-21T07:11:06.758Z,78.75
2019-03-21T07:12:06.768Z,78.75
2019-03-21T07:13:06.729Z,78.75
2019-03-21T07:14:06.715Z,78.75
2019-03-21T07:15:06.707Z,84.38
2019-03-21T07:16:09.288Z,84.38
2019-03-21T07:17:06.690Z,84.38
2019-03-21T07:18:06.683Z,84.38
2019-03-21T07:19:06.657Z,84.38
2019-03-21T07:20:06.654Z,84.38
2019-03-21T07:21:06.638Z,84.38
2019-03-21T07:22:06.626Z,84.38
2019-03-21T07:23:06.616Z,84.38
2019-03-21T07:24:06.605Z,84.38
2019-03-21T07:25:06.612Z,84.38
2019-03-21T07:26:06.875Z,84.38
2019-03-21T07:27:06.577Z,84.38
2019-03-21T07:28:06.562Z,84.38
2019-03-21T07:29:06.553Z,84.38
2019-03-21T07:30:06.542Z,84.38
2019-03-21T07:31:06.537Z,84.38
2019-03-21T07:32:06.530Z,84.38
2019-03-21T07:33:06.535Z,84.38
2019-03-21T07:34:06.532Z,84.38
2019-03-21T07:35:06.494Z,90.00
2019-03-21T07:36:06.506Z,90.00
2019-03-21T07:37:06.472Z,90.00
2019-03-21T07:38:06.503Z,90.00
2019-03-21T07:39:06.507Z,90.00
2019-03-21T07:40:06.455Z,90.00
2019-03-21T07:41:06.435Z,90.00
2019-03-21T07:42:06.474Z,90.00
2019-03-21T07:43:06.424Z,90.00
2019-03-21T07:44:06.411Z,90.00
2019-03-21T07:45:06.403Z,90.00
2019-03-21T07:46:06.387Z,90.00
2019-03-21T07:47:12.941Z,90.00
2019-03-21T07:48:07.380Z,90.00
2019-03-21T07:49:06.354Z,90.00
2019-03-21T07:50:06.338Z,90.00
2019-03-21T07:51:06.352Z,90.00
2019-03-21T07:52:06.344Z,90.00
2019-03-21T07:53:06.323Z,90.00
2019-03-21T07:54:06.299Z,95.62
2019-03-21T07:55:06.286Z,95.62
2019-03-21T07:56:06.328Z,95.62
2019-03-21T07:57:06.331Z,95.62
2019-03-21T07:58:06.301Z,95.62
2019-03-21T07:59:06.255Z,95.62
2019-03-21T08:00:06.233Z,95.62
2019-03-21T08:01:06.281Z,95.62
2019-03-21T08:02:06.246Z,95.62
2019-03-21T08:03:06.227Z,95.62
2019-03-21T08:04:06.198Z,95.62
2019-03-21T08:05:06.226Z,95.62
2019-03-21T08:06:06.181Z,95.62
2019-03-21T08:07:06.229Z,95.62
2019-03-21T08:08:06.179Z,95.62
2019-03-21T08:09:06.160Z,95.62
2019-03-21T08:10:06.149Z,95.62
2019-03-21T08:11:06.140Z,95.62
2019-03-21T08:12:06.108Z,95.62
2019-03-21T08:13:06.113Z,95.62
2019-03-21T08:14:06.107Z,95.62
2019-03-21T08:15:06.095Z,95.62
2019-03-21T08:16:06.116Z,95.62
2019-03-21T08:17:06.065Z,95.62
2019-03-21T08:18:06.062Z,101.25
2019-03-21T08:19:06.065Z,101.25
2019-03-21T08:20:06.042Z,101.25
2019-03-21T08:21:06.029Z,101.25
2019-03-21T08:22:06.004Z,101.25
2019-03-21T08:23:06.022Z,101.25
2019-03-21T08:24:06.000Z,101.25
2019-03-21T08:25:05.986Z,101.25
2019-03-21T08:26:05.988Z,101.25
2019-03-21T08:27:05.952Z,101.25
2019-03-21T08:28:05.949Z,101.25
2019-03-21T08:29:05.934Z,101.25
2019-03-21T08:30:05.928Z,101.25
2019-03-21T08:31:05.920Z,101.25
2019-03-21T08:32:05.913Z,101.25
2019-03-21T08:33:05.892Z,101.25
2019-03-21T08:34:05.914Z,101.25
2019-03-21T08:35:05.868Z,106.88
2019-03-21T08:36:05.903Z,106.88
2019-03-21T08:37:05.854Z,106.88
2019-03-21T08:38:05.851Z,106.88
2019-03-21T08:39:05.830Z,106.88
2019-03-21T08:40:05.830Z,106.88
2019-03-21T08:41:05.809Z,106.88
2019-03-21T08:42:05.809Z,106.88
2019-03-21T08:43:05.793Z,106.88
2019-03-21T08:44:05.792Z,106.88
2019-03-21T08:45:05.808Z,106.88
2019-03-21T08:46:05.754Z,106.88
2019-03-21T08:47:05.762Z,106.88
2019-03-21T08:48:05.740Z,106.88
2019-03-21T08:49:05.739Z,106.88
2019-03-21T08:50:05.714Z,106.88
2019-03-21T08:51:08.728Z,112.50
2019-03-21T08:52:05.720Z,112.50
2019-03-21T08:53:05.699Z,112.50
2019-03-21T08:54:05.682Z,112.50
2019-03-21T08:55:05.674Z,112.50
2019-03-21T08:56:05.654Z,112.50
2019-03-21T08:57:05.662Z,112.50
2019-03-21T08:58:05.632Z,112.50
2019-03-21T08:59:05.629Z,112.50
2019-03-21T09:00:05.651Z,112.50
2019-03-21T09:01:05.610Z,112.50
2019-03-21T09:02:05.602Z,112.50
2019-03-21T09:03:05.609Z,112.50
2019-03-21T09:04:05.577Z,112.50
2019-03-21T09:05:05.576Z,112.50
2019-03-21T09:06:05.558Z,112.50
2019-03-21T09:07:05.545Z,112.50
2019-03-21T09:08:05.531Z,112.50
2019-03-21T09:09:05.528Z,118.12
2019-03-21T09:10:07.903Z,118.12
2019-03-21T09:11:05.503Z,118.12
2019-03-21T09:12:05.506Z,118.12
2019-03-21T09:13:05.472Z,118.12
2019-03-21T09:14:05.466Z,118.12
2019-03-21T09:15:08.014Z,118.12
2019-03-21T09:16:05.467Z,118.12
2019-03-21T09:17:05.444Z,118.12
2019-03-21T09:18:05.421Z,118.12
2019-03-21T09:19:05.431Z,118.12
2019-03-21T09:20:05.410Z,118.12
2019-03-21T09:21:05.403Z,118.12
2019-03-21T09:22:05.390Z,123.75
2019-03-21T09:23:05.380Z,123.75
2019-03-21T09:24:05.363Z,123.75
2019-03-21T09:25:05.351Z,123.75
2019-03-21T09:26:05.378Z,123.75
2019-03-21T09:27:05.341Z,123.75
2019-03-21T09:28:05.320Z,123.75
2019-03-21T09:29:05.312Z,129.38
2019-03-21T09:30:05.332Z,129.38
2019-03-21T09:31:05.287Z,129.38
2019-03-21T09:32:05.332Z,129.38
2019-03-21T09:33:05.265Z,129.38
2019-03-21T09:34:05.262Z,129.38
2019-03-21T09:35:05.253Z,129.38
2019-03-21T09:36:05.252Z,129.38
2019-03-21T09:37:05.237Z,129.38
2019-03-21T09:38:05.232Z,129.38
2019-03-21T09:39:05.207Z,129.38
2019-03-21T09:40:05.211Z,129.38
2019-03-21T09:41:05.191Z,135.00
2019-03-21T09:42:05.206Z,135.00
2019-03-21T09:43:05.212Z,135.00
2019-03-21T09:44:05.160Z,135.00
2019-03-21T09:45:05.141Z,135.00
2019-03-21T09:46:05.142Z,135.00
2019-03-21T09:47:05.141Z,135.00
2019-03-21T09:48:05.110Z,135.00
2019-03-21T09:49:05.096Z,140.62
2019-03-21T09:50:05.088Z,140.62
2019-03-21T09:51:05.089Z,140.62
2019-03-21T09:52:05.093Z,146.25
2019-03-21T09:53:05.070Z,146.25
2019-03-21T09:54:09.677Z,146.25
2019-03-21T09:55:05.068Z,151.88
2019-03-21T09:56:05.032Z,151.88
2019-03-21T09:57:05.038Z,157.50
2019-03-21T09:58:05.040Z,157.50
2019-03-21T09:59:05.011Z,157.50
2019-03-21T10:00:04.981Z,157.50
2019-03-21T10:01:04.971Z,163.12
2019-03-21T10:02:04.959Z,163.12
2019-03-21T10:03:04.979Z,163.12
2019-03-21T10:04:04.939Z,168.75
2019-03-21T10:05:04.943Z,168.75
2019-03-21T10:06:04.914Z,168.75
2019-03-21T10:07:04.913Z,168.75
2019-03-21T10:08:04.906Z,168.75
2019-03-21T10:09:04.883Z,168.75
2019-03-21T10:10:04.873Z,174.38
2019-03-21T10:11:04.862Z,174.38
2019-03-21T10:12:04.855Z,174.38
2019-03-21T10:13:04.850Z,180.00
2019-03-21T10:14:04.845Z,180.00
2019-03-21T10:15:04.819Z,180.00
2019-03-21T10:16:04.825Z,180.00
2019-03-21T10:17:04.819Z,180.00
2019-03-21T10:18:04.833Z,180.00
2019-03-21T10:19:04.780Z,185.62
2019-03-21T10:20:04.770Z,185.62
2019-03-21T10:21:04.757Z,185.62
2019-03-21T10:22:04.749Z,185.62
2019-03-21T10:23:04.740Z,185.62
2019-03-21T10:24:04.726Z,185.62
2019-03-21T10:25:04.717Z,185.62
2019-03-21T10:26:04.704Z,185.62
2019-03-21T10:27:04.702Z,191.25
2019-03-21T10:28:04.687Z,191.25
2019-03-21T10:29:04.680Z,191.25
2019-03-21T10:30:04.668Z,196.88
2019-03-21T10:31:04.651Z,196.88
2019-03-21T10:32:13.942Z,196.88
2019-03-21T10:33:05.640Z,196.88
2019-03-21T10:34:04.619Z,196.88
2019-03-21T10:35:04.608Z,196.88
2019-03-21T10:36:04.622Z,196.88
2019-03-21T10:37:04.587Z,196.88
2019-03-21T10:38:04.590Z,202.50
2019-03-21T10:39:04.578Z,202.50
2019-03-21T10:40:04.560Z,202.50
2019-03-21T10:41:04.551Z,202.50
2019-03-21T10:42:04.534Z,202.50
2019-03-21T10:43:04.536Z,202.50
2019-03-21T10:44:04.517Z,202.50
2019-03-21T10:45:04.514Z,202.50
2019-03-21T10:46:04.498Z,202.50
2019-03-21T10:47:04.496Z,202.50
2019-03-21T10:48:04.505Z,202.50
2019-03-21T10:49:04.487Z,202.50
2019-03-21T10:50:04.450Z,202.50
2019-03-21T10:51:04.444Z,208.12
2019-03-21T10:52:04.428Z,208.12
2019-03-21T10:53:04.425Z,208.12
2019-03-21T10:54:04.411Z,208.12
2019-03-21T10:55:04.400Z,208.12
2019-03-21T10:56:04.387Z,208.12
2019-03-21T10:57:04.379Z,208.12
2019-03-21T10:58:04.365Z,208.12
2019-03-21T10:59:04.365Z,213.75
2019-03-21T11:00:04.354Z,213.75
2019-03-21T11:01:04.374Z,213.75
2019-03-21T11:02:07.616Z,219.38
2019-03-21T11:03:04.314Z,213.75
2019-03-21T11:04:04.315Z,219.38
2019-03-21T11:05:04.292Z,219.38
2019-03-21T11:06:04.281Z,219.38
2019-03-21T11:07:04.280Z,219.38
2019-03-21T11:08:04.263Z,225.00
2019-03-21T11:09:04.262Z,225.00
2019-03-21T11:10:04.242Z,230.62
2019-03-21T11:11:04.230Z,230.62
2019-03-21T11:12:04.218Z,230.62
2019-03-21T11:13:04.208Z,230.62
2019-03-21T11:14:04.207Z,236.25
2019-03-21T11:15:04.189Z,236.25
2019-03-21T11:16:04.176Z,241.88
2019-03-21T11:17:04.182Z,241.88
2019-03-21T11:18:04.155Z,241.88
2019-03-21T11:19:04.158Z,247.50
2019-03-21T11:20:04.133Z,247.50
2019-03-21T11:21:04.169Z,253.12
2019-03-21T11:22:06.569Z,253.12
2019-03-21T11:23:04.101Z,258.75
2019-03-21T11:24:04.102Z,264.38
2019-03-21T11:25:04.092Z,264.38
2019-03-21T11:26:04.069Z,258.75
2019-03-21T11:27:04.062Z,264.38
2019-03-21T11:28:04.050Z,264.38
2019-03-21T11:29:04.049Z,270.00
2019-03-21T11:30:15.436Z,275.62
2019-03-21T11:31:05.018Z,275.62
2019-03-21T11:32:04.006Z,275.62
2019-03-21T11:33:03.999Z,281.25
2019-03-21T11:34:04.002Z,281.25
2019-03-21T11:35:03.975Z,286.88
2019-03-21T11:36:03.963Z,292.50
2019-03-21T11:37:03.954Z,292.50
2019-03-21T11:38:03.942Z,298.12
2019-03-21T11:39:03.956Z,303.75
2019-03-21T11:40:03.920Z,303.75
2019-03-21T11:41:03.910Z,309.38
2019-03-21T11:42:03.903Z,315.00
2019-03-21T11:43:03.888Z,320.62
2019-03-21T11:44:03.902Z,331.88
2019-03-21T11:45:03.885Z,331.88
2019-03-21T11:46:03.866Z,343.12
2019-03-21T11:47:03.850Z,348.75
2019-03-21T11:48:03.837Z,348.75
2019-03-21T11:49:03.842Z,354.38
2019-03-21T11:50:03.818Z,365.62
2019-03-21T11:51:03.819Z,371.25
2019-03-21T11:52:03.793Z,382.50
2019-03-21T11:53:03.785Z,388.12
2019-03-21T11:54:03.997Z,393.75
2019-03-21T11:55:03.761Z,405.00
2019-03-21T11:56:03.751Z,416.25
2019-03-21T11:57:03.741Z,433.12
2019-03-21T11:58:03.730Z,444.38
2019-03-21T11:59:03.718Z,455.62
2019-03-21T12:00:03.720Z,472.50
2019-03-21T12:01:03.698Z,495.00
2019-03-21T12:02:03.688Z,517.50
2019-03-21T12:03:04.311Z,534.38
2019-03-21T12:04:03.671Z,568.12
2019-03-21T12:05:03.667Z,607.50
2019-03-21T12:06:03.645Z,652.50
2019-03-21T12:07:03.635Z,708.75
2019-03-21T12:08:03.631Z,770.62
2019-03-21T12:09:03.618Z,826.88
2019-03-21T12:10:03.616Z,888.75
2019-03-21T12:11:03.591Z,1046.25
2019-03-21T12:12:03.581Z,2435.62
2019-03-21T12:13:03.570Z,3504.38
2019-03-21T12:14:03.560Z,3521.25
2019-03-21T12:15:03.561Z,3847.50
2019-03-21T12:16:03.541Z,3903.75
2019-03-21T12:17:03.530Z,3864.38
2019-03-21T12:18:03.521Z,3993.75
2019-03-21T12:19:03.507Z,4027.50
2019-03-21T12:20:03.507Z,4021.88
2019-03-21T12:21:03.488Z,4106.25
2019-03-21T12:22:03.476Z,3982.50
2019-03-21T12:23:03.472Z,3982.50
2019-03-21T12:24:03.455Z,3988.12
2019-03-21T12:25:03.455Z,4010.62
2019-03-21T12:26:03.434Z,4027.50
2019-03-21T12:27:03.428Z,4179.38
2019-03-21T12:28:03.417Z,4173.75
2019-03-21T12:29:03.403Z,3858.75
2019-03-21T12:30:03.406Z,3706.88
2019-03-21T12:31:03.385Z,3886.88
2019-03-21T12:32:03.374Z,3853.12
2019-03-21T12:33:03.365Z,3858.75
2019-03-21T12:34:03.358Z,4269.38
2019-03-21T12:35:03.356Z,4505.62
2019-03-21T12:36:03.334Z,4545.00
2019-03-21T12:37:03.329Z,4488.75
2019-03-21T12:38:03.314Z,4443.75
2019-03-21T12:39:03.306Z,4331.25
2019-03-21T12:40:03.309Z,4443.75
2019-03-21T12:41:03.288Z,4623.75
2019-03-21T12:42:03.277Z,4533.75
2019-03-21T12:43:03.266Z,4657.50
2019-03-21T12:44:03.257Z,4494.38
2019-03-21T12:45:03.259Z,4365.00
2019-03-21T12:46:03.238Z,4770.00
2019-03-21T12:47:03.230Z,4713.75
2019-03-21T12:48:03.222Z,4567.50
2019-03-21T12:49:03.211Z,4612.50
2019-03-21T12:50:03.217Z,4741.88
2019-03-21T12:51:03.194Z,4860.00
2019-03-21T12:52:03.189Z,4837.50
2019-03-21T12:53:03.176Z,4938.75